sensor_id;sensor_type;location;lat;lon;timestamp;P1;durP1;ratioP1;P2;durP2;ratioP2
57744;SDS011;58941;50.168;4.410;2023-11-19T00:00:26;1.27;;;0.80;;
57744;SDS011;58941;50.168;4.410;2023-11-19T00:02:52;1.48;;;0.85;;
57744;SDS011;58941;50.168;4.410;2023-11-19T00:05:18;1.23;;;1.10;;
57744;SDS011;58941;50.168;4.410;2023-11-19T00:07:43;1.95;;;1.00;;
57744;SDS011;58941;50.168;4.410;2023-11-19T00:10:10;1.42;;;0.80;;
57744;SDS011;58941;50.168;4.410;2023-11-19T00:12:38;2.33;;;0.80;;
57744;SDS011;58941;50.168;4.410;2023-11-19T00:15:05;1.52;;;0.90;;
57744;SDS011;58941;50.168;4.410;2023-11-19T00:17:31;1.40;;;0.82;;
57744;SDS011;58941;50.168;4.410;2023-11-19T00:19:56;2.17;;;1.00;;
57744;SDS011;58941;50.168;4.410;2023-11-19T00:22:22;0.80;;;0.77;;
57744;SDS011;58941;50.168;4.410;2023-11-19T00:24:47;2.05;;;1.20;;
57744;SDS011;58941;50.168;4.410;2023-11-19T00:27:13;1.88;;;1.10;;
57744;SDS011;58941;50.168;4.410;2023-11-19T00:29:39;1.00;;;0.90;;
57744;SDS011;58941;50.168;4.410;2023-11-19T00:32:04;2.08;;;1.10;;
57744;SDS011;58941;50.168;4.410;2023-11-19T00:34:30;1.30;;;1.00;;
57744;SDS011;58941;50.168;4.410;2023-11-19T00:36:56;1.17;;;0.80;;
57744;SDS011;58941;50.168;4.410;2023-11-19T00:39:21;1.10;;;1.00;;
57744;SDS011;58941;50.168;4.410;2023-11-19T00:41:47;1.70;;;0.90;;
57744;SDS011;58941;50.168;4.410;2023-11-19T00:44:14;1.83;;;0.90;;
57744;SDS011;58941;50.168;4.410;2023-11-19T00:46:39;4.22;;;1.17;;
57744;SDS011;58941;50.168;4.410;2023-11-19T00:49:05;2.75;;;1.20;;
57744;SDS011;58941;50.168;4.410;2023-11-19T00:51:31;2.85;;;1.40;;
57744;SDS011;58941;50.168;4.410;2023-11-19T00:53:59;1.75;;;1.15;;
57744;SDS011;58941;50.168;4.410;2023-11-19T00:56:26;3.80;;;1.30;;
57744;SDS011;58941;50.168;4.410;2023-11-19T00:58:51;3.17;;;1.20;;
57744;SDS011;58941;50.168;4.410;2023-11-19T01:01:17;1.75;;;1.20;;
57744;SDS011;58941;50.168;4.410;2023-11-19T01:03:42;2.78;;;1.20;;
57744;SDS011;58941;50.168;4.410;2023-11-19T01:06:08;2.40;;;1.20;;
57744;SDS011;58941;50.168;4.410;2023-11-19T01:08:33;3.22;;;1.20;;
57744;SDS011;58941;50.168;4.410;2023-11-19T01:11:01;4.30;;;1.38;;
57744;SDS011;58941;50.168;4.410;2023-11-19T01:13:27;3.20;;;1.30;;
57744;SDS011;58941;50.168;4.410;2023-11-19T01:15:52;5.15;;;1.70;;
57744;SDS011;58941;50.168;4.410;2023-11-19T01:18:18;6.28;;;1.63;;
57744;SDS011;58941;50.168;4.410;2023-11-19T01:20:43;3.53;;;1.48;;
57744;SDS011;58941;50.168;4.410;2023-11-19T01:23:09;3.25;;;1.38;;
57744;SDS011;58941;50.168;4.410;2023-11-19T01:25:34;3.35;;;1.20;;
57744;SDS011;58941;50.168;4.410;2023-11-19T01:28:00;2.10;;;1.10;;
57744;SDS011;58941;50.168;4.410;2023-11-19T01:30:27;2.45;;;1.33;;
57744;SDS011;58941;50.168;4.410;2023-11-19T01:32:53;3.53;;;1.40;;
57744;SDS011;58941;50.168;4.410;2023-11-19T01:35:19;6.05;;;1.50;;
57744;SDS011;58941;50.168;4.410;2023-11-19T01:37:44;5.82;;;1.50;;
57744;SDS011;58941;50.168;4.410;2023-11-19T01:40:10;6.18;;;1.30;;
57744;SDS011;58941;50.168;4.410;2023-11-19T01:42:37;6.47;;;1.50;;
57744;SDS011;58941;50.168;4.410;2023-11-19T01:45:03;4.50;;;1.45;;
57744;SDS011;58941;50.168;4.410;2023-11-19T01:47:31;4.55;;;1.17;;
57744;SDS011;58941;50.168;4.410;2023-11-19T01:49:57;4.45;;;1.48;;
57744;SDS011;58941;50.168;4.410;2023-11-19T01:52:23;5.22;;;1.92;;
57744;SDS011;58941;50.168;4.410;2023-11-19T01:54:49;4.25;;;1.50;;
57744;SDS011;58941;50.168;4.410;2023-11-19T01:57:15;3.90;;;1.60;;
57744;SDS011;58941;50.168;4.410;2023-11-19T01:59:41;4.60;;;2.08;;
57744;SDS011;58941;50.168;4.410;2023-11-19T02:02:07;6.78;;;1.92;;
57744;SDS011;58941;50.168;4.410;2023-11-19T02:04:32;4.07;;;1.63;;
57744;SDS011;58941;50.168;4.410;2023-11-19T02:06:58;7.82;;;1.50;;
57744;SDS011;58941;50.168;4.410;2023-11-19T02:09:24;6.93;;;1.60;;
57744;SDS011;58941;50.168;4.410;2023-11-19T02:11:49;5.90;;;1.60;;
57744;SDS011;58941;50.168;4.410;2023-11-19T02:14:17;7.35;;;1.60;;
57744;SDS011;58941;50.168;4.410;2023-11-19T02:16:43;4.38;;;1.55;;
57744;SDS011;58941;50.168;4.410;2023-11-19T02:19:08;6.38;;;2.00;;
57744;SDS011;58941;50.168;4.410;2023-11-19T02:21:36;5.13;;;1.80;;
57744;SDS011;58941;50.168;4.410;2023-11-19T02:24:05;5.13;;;1.30;;
57744;SDS011;58941;50.168;4.410;2023-11-19T02:26:56;4.10;;;1.40;;
57744;SDS011;58941;50.168;4.410;2023-11-19T02:29:18;3.97;;;1.67;;
57744;SDS011;58941;50.168;4.410;2023-11-19T02:31:43;3.38;;;1.30;;
57744;SDS011;58941;50.168;4.410;2023-11-19T02:34:10;5.63;;;1.70;;
57744;SDS011;58941;50.168;4.410;2023-11-19T02:36:36;4.30;;;1.65;;
57744;SDS011;58941;50.168;4.410;2023-11-19T02:39:01;4.82;;;1.63;;
57744;SDS011;58941;50.168;4.410;2023-11-19T02:41:27;4.13;;;1.60;;
57744;SDS011;58941;50.168;4.410;2023-11-19T02:43:52;6.22;;;1.90;;
57744;SDS011;58941;50.168;4.410;2023-11-19T02:46:18;3.85;;;1.83;;
57744;SDS011;58941;50.168;4.410;2023-11-19T02:48:44;4.47;;;1.17;;
57744;SDS011;58941;50.168;4.410;2023-11-19T02:51:11;6.55;;;1.63;;
57744;SDS011;58941;50.168;4.410;2023-11-19T02:53:36;5.40;;;1.58;;
57744;SDS011;58941;50.168;4.410;2023-11-19T02:56:02;3.70;;;1.60;;
57744;SDS011;58941;50.168;4.410;2023-11-19T02:58:37;4.07;;;1.63;;
57744;SDS011;58941;50.168;4.410;2023-11-19T03:01:04;6.57;;;1.65;;
57744;SDS011;58941;50.168;4.410;2023-11-19T03:03:44;5.18;;;1.77;;
57744;SDS011;58941;50.168;4.410;2023-11-19T03:06:14;5.18;;;1.48;;
57744;SDS011;58941;50.168;4.410;2023-11-19T03:08:39;8.07;;;1.67;;
57744;SDS011;58941;50.168;4.410;2023-11-19T03:11:05;6.60;;;1.50;;
57744;SDS011;58941;50.168;4.410;2023-11-19T03:13:30;8.73;;;1.95;;
57744;SDS011;58941;50.168;4.410;2023-11-19T03:15:56;7.60;;;1.92;;
57744;SDS011;58941;50.168;4.410;2023-11-19T03:18:21;5.63;;;1.60;;
57744;SDS011;58941;50.168;4.410;2023-11-19T03:20:47;5.80;;;1.42;;
57744;SDS011;58941;50.168;4.410;2023-11-19T03:23:12;3.95;;;1.60;;
57744;SDS011;58941;50.168;4.410;2023-11-19T03:25:38;4.72;;;1.50;;
57744;SDS011;58941;50.168;4.410;2023-11-19T03:28:04;6.03;;;1.75;;
57744;SDS011;58941;50.168;4.410;2023-11-19T03:30:30;5.13;;;1.85;;
57744;SDS011;58941;50.168;4.410;2023-11-19T03:32:56;3.45;;;1.65;;
57744;SDS011;58941;50.168;4.410;2023-11-19T03:35:22;7.20;;;2.05;;
57744;SDS011;58941;50.168;4.410;2023-11-19T03:37:47;5.63;;;1.80;;
57744;SDS011;58941;50.168;4.410;2023-11-19T03:40:13;8.13;;;1.67;;
57744;SDS011;58941;50.168;4.410;2023-11-19T03:42:40;5.47;;;1.67;;
57744;SDS011;58941;50.168;4.410;2023-11-19T03:45:06;3.20;;;1.48;;
57744;SDS011;58941;50.168;4.410;2023-11-19T03:47:34;5.43;;;1.55;;
57744;SDS011;58941;50.168;4.410;2023-11-19T03:49:59;5.50;;;1.50;;
57744;SDS011;58941;50.168;4.410;2023-11-19T03:52:25;6.05;;;1.58;;
57744;SDS011;58941;50.168;4.410;2023-11-19T03:54:52;6.43;;;2.00;;
57744;SDS011;58941;50.168;4.410;2023-11-19T03:57:18;8.30;;;2.03;;
57744;SDS011;58941;50.168;4.410;2023-11-19T03:59:43;4.18;;;1.65;;
57744;SDS011;58941;50.168;4.410;2023-11-19T04:02:10;5.65;;;1.75;;
57744;SDS011;58941;50.168;4.410;2023-11-19T04:04:35;7.22;;;1.67;;
57744;SDS011;58941;50.168;4.410;2023-11-19T04:07:01;5.05;;;1.75;;
57744;SDS011;58941;50.168;4.410;2023-11-19T04:09:28;5.68;;;1.77;;
57744;SDS011;58941;50.168;4.410;2023-11-19T04:11:54;7.35;;;1.73;;
57744;SDS011;58941;50.168;4.410;2023-11-19T04:14:19;6.18;;;1.70;;
57744;SDS011;58941;50.168;4.410;2023-11-19T04:16:45;6.57;;;1.55;;
57744;SDS011;58941;50.168;4.410;2023-11-19T04:19:10;5.00;;;1.70;;
57744;SDS011;58941;50.168;4.410;2023-11-19T04:21:36;5.22;;;1.75;;
57744;SDS011;58941;50.168;4.410;2023-11-19T04:24:02;7.72;;;1.80;;
57744;SDS011;58941;50.168;4.410;2023-11-19T04:26:27;6.03;;;1.65;;
57744;SDS011;58941;50.168;4.410;2023-11-19T04:28:53;5.53;;;2.03;;
57744;SDS011;58941;50.168;4.410;2023-11-19T04:31:18;5.95;;;1.80;;
57744;SDS011;58941;50.168;4.410;2023-11-19T04:33:44;6.40;;;1.70;;
57744;SDS011;58941;50.168;4.410;2023-11-19T04:36:10;7.07;;;2.08;;
57744;SDS011;58941;50.168;4.410;2023-11-19T04:38:37;3.45;;;1.48;;
57744;SDS011;58941;50.168;4.410;2023-11-19T04:41:04;3.80;;;1.35;;
57744;SDS011;58941;50.168;4.410;2023-11-19T04:43:31;7.97;;;1.88;;
57744;SDS011;58941;50.168;4.410;2023-11-19T04:45:56;6.60;;;2.10;;
57744;SDS011;58941;50.168;4.410;2023-11-19T04:48:22;4.32;;;1.60;;
57744;SDS011;58941;50.168;4.410;2023-11-19T04:50:48;9.68;;;2.00;;
57744;SDS011;58941;50.168;4.410;2023-11-19T04:53:14;4.93;;;1.60;;
57744;SDS011;58941;50.168;4.410;2023-11-19T04:55:40;5.28;;;1.48;;
57744;SDS011;58941;50.168;4.410;2023-11-19T04:58:06;6.55;;;1.65;;
57744;SDS011;58941;50.168;4.410;2023-11-19T05:00:32;5.45;;;1.70;;
57744;SDS011;58941;50.168;4.410;2023-11-19T05:02:57;8.07;;;1.70;;
57744;SDS011;58941;50.168;4.410;2023-11-19T05:05:23;6.28;;;1.90;;
57744;SDS011;58941;50.168;4.410;2023-11-19T05:07:49;5.80;;;1.63;;
57744;SDS011;58941;50.168;4.410;2023-11-19T05:10:14;6.43;;;1.52;;
57744;SDS011;58941;50.168;4.410;2023-11-19T05:12:40;7.95;;;1.65;;
57744;SDS011;58941;50.168;4.410;2023-11-19T05:15:06;6.00;;;1.70;;
57744;SDS011;58941;50.168;4.410;2023-11-19T05:17:33;9.43;;;1.88;;
57744;SDS011;58941;50.168;4.410;2023-11-19T05:19:58;7.93;;;1.80;;
57744;SDS011;58941;50.168;4.410;2023-11-19T05:22:24;12.00;;;2.22;;
57744;SDS011;58941;50.168;4.410;2023-11-19T05:24:49;8.10;;;1.95;;
57744;SDS011;58941;50.168;4.410;2023-11-19T05:27:15;8.25;;;1.95;;
57744;SDS011;58941;50.168;4.410;2023-11-19T05:29:40;5.40;;;1.83;;
57744;SDS011;58941;50.168;4.410;2023-11-19T05:32:07;6.57;;;1.85;;
57744;SDS011;58941;50.168;4.410;2023-11-19T05:34:32;6.47;;;1.70;;
57744;SDS011;58941;50.168;4.410;2023-11-19T05:36:57;8.43;;;1.92;;
57744;SDS011;58941;50.168;4.410;2023-11-19T05:39:23;6.05;;;1.80;;
57744;SDS011;58941;50.168;4.410;2023-11-19T05:41:49;7.25;;;2.15;;
57744;SDS011;58941;50.168;4.410;2023-11-19T05:44:15;6.85;;;2.13;;
57744;SDS011;58941;50.168;4.410;2023-11-19T05:46:40;10.43;;;1.70;;
57744;SDS011;58941;50.168;4.410;2023-11-19T05:49:11;7.10;;;1.67;;
57744;SDS011;58941;50.168;4.410;2023-11-19T05:51:37;7.00;;;1.90;;
57744;SDS011;58941;50.168;4.410;2023-11-19T05:54:03;7.45;;;2.33;;
57744;SDS011;58941;50.168;4.410;2023-11-19T05:56:29;7.68;;;2.05;;
57744;SDS011;58941;50.168;4.410;2023-11-19T05:58:57;4.43;;;1.52;;
57744;SDS011;58941;50.168;4.410;2023-11-19T06:01:23;6.28;;;2.08;;
57744;SDS011;58941;50.168;4.410;2023-11-19T06:03:48;8.45;;;1.63;;
57744;SDS011;58941;50.168;4.410;2023-11-19T06:06:15;10.50;;;2.00;;
57744;SDS011;58941;50.168;4.410;2023-11-19T06:08:40;6.70;;;2.20;;
57744;SDS011;58941;50.168;4.410;2023-11-19T06:11:06;7.43;;;1.80;;
57744;SDS011;58941;50.168;4.410;2023-11-19T06:13:32;8.70;;;1.80;;
57744;SDS011;58941;50.168;4.410;2023-11-19T06:15:57;6.50;;;1.88;;
57744;SDS011;58941;50.168;4.410;2023-11-19T06:18:23;9.20;;;2.67;;
57744;SDS011;58941;50.168;4.410;2023-11-19T06:20:48;6.60;;;1.70;;
57744;SDS011;58941;50.168;4.410;2023-11-19T06:23:15;7.28;;;1.83;;
57744;SDS011;58941;50.168;4.410;2023-11-19T06:25:40;6.88;;;1.90;;
57744;SDS011;58941;50.168;4.410;2023-11-19T06:28:05;8.98;;;2.17;;
57744;SDS011;58941;50.168;4.410;2023-11-19T06:30:31;7.13;;;1.80;;
57744;SDS011;58941;50.168;4.410;2023-11-19T06:32:58;7.63;;;2.53;;
57744;SDS011;58941;50.168;4.410;2023-11-19T06:35:23;8.07;;;2.13;;
57744;SDS011;58941;50.168;4.410;2023-11-19T06:37:49;9.05;;;2.50;;
57744;SDS011;58941;50.168;4.410;2023-11-19T06:40:14;8.05;;;2.05;;
57744;SDS011;58941;50.168;4.410;2023-11-19T06:42:41;7.75;;;2.55;;
57744;SDS011;58941;50.168;4.410;2023-11-19T06:45:06;8.23;;;2.15;;
57744;SDS011;58941;50.168;4.410;2023-11-19T06:47:32;9.85;;;2.20;;
57744;SDS011;58941;50.168;4.410;2023-11-19T06:49:58;10.65;;;2.97;;
57744;SDS011;58941;50.168;4.410;2023-11-19T06:52:23;10.13;;;2.50;;
57744;SDS011;58941;50.168;4.410;2023-11-19T06:54:49;10.07;;;2.42;;
57744;SDS011;58941;50.168;4.410;2023-11-19T06:57:14;10.75;;;2.42;;
57744;SDS011;58941;50.168;4.410;2023-11-19T06:59:40;8.15;;;2.20;;
57744;SDS011;58941;50.168;4.410;2023-11-19T07:02:06;8.95;;;2.58;;
57744;SDS011;58941;50.168;4.410;2023-11-19T07:04:31;8.55;;;2.25;;
57744;SDS011;58941;50.168;4.410;2023-11-19T07:06:58;7.43;;;2.15;;
57744;SDS011;58941;50.168;4.410;2023-11-19T07:09:25;6.68;;;1.80;;
57744;SDS011;58941;50.168;4.410;2023-11-19T07:11:50;7.80;;;2.47;;
57744;SDS011;58941;50.168;4.410;2023-11-19T07:14:17;8.95;;;2.38;;
57744;SDS011;58941;50.168;4.410;2023-11-19T07:16:43;7.68;;;2.22;;
57744;SDS011;58941;50.168;4.410;2023-11-19T07:19:09;11.30;;;3.28;;
57744;SDS011;58941;50.168;4.410;2023-11-19T07:21:34;8.38;;;2.05;;
57744;SDS011;58941;50.168;4.410;2023-11-19T07:24:00;7.07;;;2.15;;
57744;SDS011;58941;50.168;4.410;2023-11-19T07:26:27;10.77;;;2.80;;
57744;SDS011;58941;50.168;4.410;2023-11-19T07:28:52;8.70;;;2.67;;
57744;SDS011;58941;50.168;4.410;2023-11-19T07:31:18;10.32;;;2.40;;
57744;SDS011;58941;50.168;4.410;2023-11-19T07:33:46;10.77;;;2.67;;
57744;SDS011;58941;50.168;4.410;2023-11-19T07:36:13;12.88;;;2.30;;
57744;SDS011;58941;50.168;4.410;2023-11-19T07:38:39;6.60;;;2.08;;
57744;SDS011;58941;50.168;4.410;2023-11-19T07:41:07;10.02;;;2.05;;
57744;SDS011;58941;50.168;4.410;2023-11-19T07:43:35;7.97;;;2.17;;
57744;SDS011;58941;50.168;4.410;2023-11-19T07:46:01;6.68;;;2.17;;
57744;SDS011;58941;50.168;4.410;2023-11-19T07:48:27;7.95;;;2.15;;
57744;SDS011;58941;50.168;4.410;2023-11-19T07:50:52;9.63;;;2.55;;
57744;SDS011;58941;50.168;4.410;2023-11-19T07:53:18;8.05;;;2.13;;
57744;SDS011;58941;50.168;4.410;2023-11-19T07:55:44;6.85;;;2.47;;
57744;SDS011;58941;50.168;4.410;2023-11-19T07:58:10;10.48;;;2.15;;
57744;SDS011;58941;50.168;4.410;2023-11-19T08:00:36;9.35;;;2.38;;
57744;SDS011;58941;50.168;4.410;2023-11-19T08:03:01;7.70;;;2.03;;
57744;SDS011;58941;50.168;4.410;2023-11-19T08:05:26;8.70;;;2.17;;
57744;SDS011;58941;50.168;4.410;2023-11-19T08:07:52;8.32;;;2.08;;
57744;SDS011;58941;50.168;4.410;2023-11-19T08:10:18;8.02;;;2.28;;
57744;SDS011;58941;50.168;4.410;2023-11-19T08:12:44;10.57;;;2.42;;
57744;SDS011;58941;50.168;4.410;2023-11-19T08:15:09;7.72;;;2.35;;
57744;SDS011;58941;50.168;4.410;2023-11-19T08:17:36;9.85;;;2.40;;
57744;SDS011;58941;50.168;4.410;2023-11-19T08:20:01;8.32;;;2.60;;
57744;SDS011;58941;50.168;4.410;2023-11-19T08:22:27;7.25;;;2.30;;
57744;SDS011;58941;50.168;4.410;2023-11-19T08:24:52;10.90;;;2.50;;
57744;SDS011;58941;50.168;4.410;2023-11-19T08:27:18;6.05;;;2.28;;
57744;SDS011;58941;50.168;4.410;2023-11-19T08:29:43;8.45;;;2.42;;
57744;SDS011;58941;50.168;4.410;2023-11-19T08:32:09;9.25;;;1.90;;
57744;SDS011;58941;50.168;4.410;2023-11-19T08:34:36;12.40;;;2.13;;
57744;SDS011;58941;50.168;4.410;2023-11-19T08:37:01;7.30;;;2.22;;
57744;SDS011;58941;50.168;4.410;2023-11-19T08:39:27;9.68;;;2.33;;
57744;SDS011;58941;50.168;4.410;2023-11-19T08:41:52;9.75;;;2.00;;
57744;SDS011;58941;50.168;4.410;2023-11-19T08:44:18;11.18;;;1.95;;
57744;SDS011;58941;50.168;4.410;2023-11-19T08:46:50;11.65;;;2.40;;
57744;SDS011;58941;50.168;4.410;2023-11-19T08:49:15;7.43;;;2.05;;
57744;SDS011;58941;50.168;4.410;2023-11-19T08:51:41;8.10;;;2.47;;
57744;SDS011;58941;50.168;4.410;2023-11-19T08:54:06;6.45;;;2.40;;
57744;SDS011;58941;50.168;4.410;2023-11-19T08:56:32;7.45;;;2.17;;
57744;SDS011;58941;50.168;4.410;2023-11-19T08:58:59;9.52;;;2.42;;
57744;SDS011;58941;50.168;4.410;2023-11-19T09:01:25;6.40;;;2.00;;
57744;SDS011;58941;50.168;4.410;2023-11-19T09:03:51;8.50;;;2.15;;
57744;SDS011;58941;50.168;4.410;2023-11-19T09:06:17;9.32;;;2.63;;
57744;SDS011;58941;50.168;4.410;2023-11-19T09:08:42;7.50;;;1.85;;
57744;SDS011;58941;50.168;4.410;2023-11-19T09:11:08;9.50;;;2.08;;
57744;SDS011;58941;50.168;4.410;2023-11-19T09:13:37;9.15;;;2.10;;
57744;SDS011;58941;50.168;4.410;2023-11-19T09:16:02;8.43;;;2.03;;
57744;SDS011;58941;50.168;4.410;2023-11-19T09:18:29;7.70;;;2.50;;
57744;SDS011;58941;50.168;4.410;2023-11-19T09:20:54;6.90;;;2.00;;
57744;SDS011;58941;50.168;4.410;2023-11-19T09:23:20;8.02;;;1.90;;
57744;SDS011;58941;50.168;4.410;2023-11-19T09:25:46;7.53;;;2.50;;
57744;SDS011;58941;50.168;4.410;2023-11-19T09:28:11;8.77;;;2.00;;
57744;SDS011;58941;50.168;4.410;2023-11-19T09:30:38;7.95;;;1.83;;
57744;SDS011;58941;50.168;4.410;2023-11-19T09:33:03;6.28;;;1.75;;
57744;SDS011;58941;50.168;4.410;2023-11-19T09:35:29;8.63;;;2.55;;
57744;SDS011;58941;50.168;4.410;2023-11-19T09:37:54;8.50;;;2.25;;
57744;SDS011;58941;50.168;4.410;2023-11-19T09:40:20;3.88;;;1.95;;
57744;SDS011;58941;50.168;4.410;2023-11-19T09:42:46;10.80;;;2.22;;
57744;SDS011;58941;50.168;4.410;2023-11-19T09:45:13;7.07;;;1.77;;
57744;SDS011;58941;50.168;4.410;2023-11-19T09:47:40;6.78;;;2.00;;
57744;SDS011;58941;50.168;4.410;2023-11-19T09:50:06;7.47;;;1.55;;
57744;SDS011;58941;50.168;4.410;2023-11-19T09:52:32;7.65;;;1.98;;
57744;SDS011;58941;50.168;4.410;2023-11-19T09:54:57;7.40;;;2.30;;
57744;SDS011;58941;50.168;4.410;2023-11-19T09:57:23;9.23;;;2.03;;
57744;SDS011;58941;50.168;4.410;2023-11-19T09:59:48;7.75;;;1.75;;
57744;SDS011;58941;50.168;4.410;2023-11-19T10:02:15;6.25;;;2.30;;
57744;SDS011;58941;50.168;4.410;2023-11-19T10:04:42;7.03;;;2.00;;
57744;SDS011;58941;50.168;4.410;2023-11-19T10:07:08;5.85;;;1.63;;
57744;SDS011;58941;50.168;4.410;2023-11-19T10:09:34;4.13;;;1.55;;
57744;SDS011;58941;50.168;4.410;2023-11-19T10:11:59;7.55;;;1.70;;
57744;SDS011;58941;50.168;4.410;2023-11-19T10:14:25;5.05;;;1.60;;
57744;SDS011;58941;50.168;4.410;2023-11-19T10:16:50;7.90;;;1.92;;
57744;SDS011;58941;50.168;4.410;2023-11-19T10:19:18;8.55;;;1.90;;
57744;SDS011;58941;50.168;4.410;2023-11-19T10:21:45;8.13;;;1.90;;
57744;SDS011;58941;50.168;4.410;2023-11-19T10:24:11;6.82;;;2.20;;
57744;SDS011;58941;50.168;4.410;2023-11-19T10:26:36;9.27;;;2.10;;
57744;SDS011;58941;50.168;4.410;2023-11-19T10:29:02;12.80;;;2.72;;
57744;SDS011;58941;50.168;4.410;2023-11-19T10:31:29;7.38;;;1.75;;
57744;SDS011;58941;50.168;4.410;2023-11-19T10:33:54;7.20;;;1.90;;
57744;SDS011;58941;50.168;4.410;2023-11-19T10:36:20;6.30;;;2.10;;
57744;SDS011;58941;50.168;4.410;2023-11-19T10:38:52;8.02;;;1.90;;
57744;SDS011;58941;50.168;4.410;2023-11-19T10:43:53;6.57;;;1.58;;
57744;SDS011;58941;50.168;4.410;2023-11-19T10:46:19;6.72;;;2.40;;
57744;SDS011;58941;50.168;4.410;2023-11-19T10:48:48;6.68;;;1.77;;
57744;SDS011;58941;50.168;4.410;2023-11-19T10:51:13;7.63;;;2.08;;
57744;SDS011;58941;50.168;4.410;2023-11-19T10:53:46;7.13;;;1.92;;
57744;SDS011;58941;50.168;4.410;2023-11-19T10:56:14;8.77;;;2.63;;
57744;SDS011;58941;50.168;4.410;2023-11-19T10:58:43;6.72;;;1.70;;
57744;SDS011;58941;50.168;4.410;2023-11-19T11:01:15;7.45;;;1.90;;
57744;SDS011;58941;50.168;4.410;2023-11-19T11:03:41;7.70;;;1.95;;
57744;SDS011;58941;50.168;4.410;2023-11-19T11:06:08;7.40;;;1.92;;
57744;SDS011;58941;50.168;4.410;2023-11-19T11:08:36;6.00;;;1.75;;
57744;SDS011;58941;50.168;4.410;2023-11-19T11:11:02;6.70;;;2.22;;
57744;SDS011;58941;50.168;4.410;2023-11-19T11:13:29;9.60;;;1.88;;
57744;SDS011;58941;50.168;4.410;2023-11-19T11:15:56;7.25;;;1.90;;
57744;SDS011;58941;50.168;4.410;2023-11-19T11:18:25;6.28;;;1.95;;
57744;SDS011;58941;50.168;4.410;2023-11-19T11:20:57;7.75;;;2.13;;
57744;SDS011;58941;50.168;4.410;2023-11-19T11:36:22;7.82;;;1.85;;
57744;SDS011;58941;50.168;4.410;2023-11-19T11:38:48;7.40;;;1.73;;
57744;SDS011;58941;50.168;4.410;2023-11-19T11:41:18;8.27;;;1.95;;
57744;SDS011;58941;50.168;4.410;2023-11-19T11:43:45;10.50;;;2.00;;
57744;SDS011;58941;50.168;4.410;2023-11-19T11:48:55;6.40;;;1.77;;
57744;SDS011;58941;50.168;4.410;2023-11-19T11:51:43;10.38;;;1.88;;
57744;SDS011;58941;50.168;4.410;2023-11-19T11:54:07;10.05;;;2.85;;
57744;SDS011;58941;50.168;4.410;2023-11-19T11:56:33;9.82;;;1.90;;
57744;SDS011;58941;50.168;4.410;2023-11-19T11:58:59;8.10;;;1.80;;
57744;SDS011;58941;50.168;4.410;2023-11-19T12:01:25;9.07;;;2.03;;
57744;SDS011;58941;50.168;4.410;2023-11-19T12:03:55;5.93;;;1.58;;
57744;SDS011;58941;50.168;4.410;2023-11-19T12:06:21;8.80;;;1.95;;
57744;SDS011;58941;50.168;4.410;2023-11-19T12:08:47;7.80;;;1.90;;
57744;SDS011;58941;50.168;4.410;2023-11-19T12:11:12;5.65;;;2.00;;
57744;SDS011;58941;50.168;4.410;2023-11-19T12:13:52;8.50;;;1.85;;
57744;SDS011;58941;50.168;4.410;2023-11-19T12:16:18;9.15;;;2.35;;
57744;SDS011;58941;50.168;4.410;2023-11-19T12:18:43;6.07;;;1.98;;
57744;SDS011;58941;50.168;4.410;2023-11-19T12:21:10;6.95;;;2.10;;
57744;SDS011;58941;50.168;4.410;2023-11-19T12:23:35;7.20;;;2.05;;
57744;SDS011;58941;50.168;4.410;2023-11-19T12:26:14;7.80;;;1.92;;
57744;SDS011;58941;50.168;4.410;2023-11-19T12:28:57;8.63;;;2.30;;
57744;SDS011;58941;50.168;4.410;2023-11-19T12:31:23;7.53;;;2.78;;
57744;SDS011;58941;50.168;4.410;2023-11-19T12:33:48;6.47;;;2.30;;
57744;SDS011;58941;50.168;4.410;2023-11-19T12:36:16;7.07;;;2.22;;
57744;SDS011;58941;50.168;4.410;2023-11-19T12:38:43;6.75;;;1.92;;
57744;SDS011;58941;50.168;4.410;2023-11-19T12:41:10;9.90;;;2.75;;
57744;SDS011;58941;50.168;4.410;2023-11-19T12:43:37;10.65;;;1.90;;
57744;SDS011;58941;50.168;4.410;2023-11-19T12:46:21;5.47;;;2.10;;
57744;SDS011;58941;50.168;4.410;2023-11-19T12:48:47;9.82;;;2.30;;
57744;SDS011;58941;50.168;4.410;2023-11-19T12:51:13;5.03;;;1.95;;
57744;SDS011;58941;50.168;4.410;2023-11-19T12:53:48;8.35;;;1.67;;
57744;SDS011;58941;50.168;4.410;2023-11-19T12:56:15;7.22;;;1.90;;
57744;SDS011;58941;50.168;4.410;2023-11-19T12:58:41;8.45;;;2.17;;
57744;SDS011;58941;50.168;4.410;2023-11-19T13:01:08;7.97;;;2.03;;
57744;SDS011;58941;50.168;4.410;2023-11-19T13:03:37;6.93;;;2.28;;
57744;SDS011;58941;50.168;4.410;2023-11-19T13:06:10;9.55;;;2.17;;
57744;SDS011;58941;50.168;4.410;2023-11-19T13:08:46;6.78;;;2.05;;
57744;SDS011;58941;50.168;4.410;2023-11-19T13:11:14;6.88;;;2.28;;
57744;SDS011;58941;50.168;4.410;2023-11-19T13:13:59;8.48;;;2.25;;
57744;SDS011;58941;50.168;4.410;2023-11-19T13:16:25;9.07;;;2.28;;
57744;SDS011;58941;50.168;4.410;2023-11-19T13:18:51;8.68;;;2.40;;
57744;SDS011;58941;50.168;4.410;2023-11-19T13:21:16;10.55;;;2.20;;
57744;SDS011;58941;50.168;4.410;2023-11-19T13:23:43;9.25;;;2.22;;
57744;SDS011;58941;50.168;4.410;2023-11-19T13:26:09;6.78;;;2.38;;
57744;SDS011;58941;50.168;4.410;2023-11-19T13:28:34;9.52;;;2.40;;
57744;SDS011;58941;50.168;4.410;2023-11-19T13:31:00;11.57;;;2.17;;
57744;SDS011;58941;50.168;4.410;2023-11-19T13:33:26;9.45;;;2.67;;
57744;SDS011;58941;50.168;4.410;2023-11-19T13:35:51;7.40;;;2.00;;
57744;SDS011;58941;50.168;4.410;2023-11-19T13:38:18;7.15;;;1.88;;
57744;SDS011;58941;50.168;4.410;2023-11-19T13:40:43;6.55;;;2.10;;
57744;SDS011;58941;50.168;4.410;2023-11-19T13:43:09;9.43;;;2.58;;
57744;SDS011;58941;50.168;4.410;2023-11-19T13:45:34;7.20;;;2.10;;
57744;SDS011;58941;50.168;4.410;2023-11-19T13:48:00;8.38;;;2.35;;
57744;SDS011;58941;50.168;4.410;2023-11-19T13:50:25;9.68;;;2.22;;
57744;SDS011;58941;50.168;4.410;2023-11-19T13:52:51;10.32;;;2.08;;
57744;SDS011;58941;50.168;4.410;2023-11-19T13:55:16;8.27;;;2.78;;
57744;SDS011;58941;50.168;4.410;2023-11-19T13:57:43;8.57;;;1.80;;
57744;SDS011;58941;50.168;4.410;2023-11-19T14:00:09;7.90;;;2.33;;
57744;SDS011;58941;50.168;4.410;2023-11-19T14:02:44;9.35;;;2.85;;
57744;SDS011;58941;50.168;4.410;2023-11-19T14:05:10;10.38;;;2.50;;
57744;SDS011;58941;50.168;4.410;2023-11-19T14:07:36;4.82;;;1.88;;
57744;SDS011;58941;50.168;4.410;2023-11-19T14:10:02;10.40;;;2.47;;
57744;SDS011;58941;50.168;4.410;2023-11-19T14:12:28;8.13;;;2.35;;
57744;SDS011;58941;50.168;4.410;2023-11-19T14:14:53;6.30;;;2.00;;
57744;SDS011;58941;50.168;4.410;2023-11-19T14:17:20;7.32;;;2.10;;
57744;SDS011;58941;50.168;4.410;2023-11-19T14:19:45;10.00;;;2.10;;
57744;SDS011;58941;50.168;4.410;2023-11-19T14:22:11;8.55;;;1.90;;
57744;SDS011;58941;50.168;4.410;2023-11-19T14:24:37;6.95;;;1.70;;
57744;SDS011;58941;50.168;4.410;2023-11-19T14:27:02;10.65;;;2.53;;
57744;SDS011;58941;50.168;4.410;2023-11-19T14:29:28;9.65;;;2.63;;
57744;SDS011;58941;50.168;4.410;2023-11-19T14:31:55;6.53;;;2.30;;
57744;SDS011;58941;50.168;4.410;2023-11-19T14:34:21;10.52;;;2.25;;
57744;SDS011;58941;50.168;4.410;2023-11-19T14:36:46;7.03;;;1.80;;
57744;SDS011;58941;50.168;4.410;2023-11-19T14:39:12;10.40;;;2.30;;
57744;SDS011;58941;50.168;4.410;2023-11-19T14:41:38;7.20;;;2.00;;
57744;SDS011;58941;50.168;4.410;2023-11-19T14:44:04;9.35;;;2.65;;
57744;SDS011;58941;50.168;4.410;2023-11-19T14:46:29;8.70;;;2.45;;
57744;SDS011;58941;50.168;4.410;2023-11-19T14:48:55;7.75;;;2.50;;
57744;SDS011;58941;50.168;4.410;2023-11-19T14:51:20;10.98;;;2.67;;
57744;SDS011;58941;50.168;4.410;2023-11-19T14:53:46;7.40;;;2.63;;
57744;SDS011;58941;50.168;4.410;2023-11-19T14:56:12;8.10;;;2.38;;
57744;SDS011;58941;50.168;4.410;2023-11-19T14:58:41;8.70;;;2.30;;